Terminal Aerodrome Forecast
Issued by NWS Wilmington, OH

Current Version | Previous Version | Text Only | Print | Product List | Glossary Off
Versions: 1 2 3 4 5 6 7 8 9 10 11 12 13 14 15 16 17 18 19 20 21 22 23

580
FTUS41 KILN 220807 AAB
TAFILN
TAF AMD
KILN 220807Z 2208/2306 22006KT 4SM BR VCSH FEW008 OVC080
     FM221100 VRB03KT 2SM BR OVC008
     FM221800 20005KT 6SM BR BKN015
     FM222100 20004KT P6SM BKN025
     FM230200 19004KT P6SM BKN015=

USA.gov is the U.S. government's official web portal to all federal, state and local government web resources and services.